Live aus Altenrhein
LIVE
LSZR 211020Z 30003KT CAVOK 13/09 Q1021 NOSIG RMK G
Zeitraffer heute
2017-09-21 00:00:00
LSZR 202150Z AUTO 07003KT 040V100 CAVOK 07/06 Q1023
Zeitraffer gestern
2017-09-20 00:14:52
LSZR 192150Z AUTO 11003KT 070V150 9999 FEW021 BKN026 09/08 Q1021
Zeitraffer vor 3 Tagen
2017-09-18 00:14:59
LSZR 172150Z AUTO 09004KT 9999 -RA SCT039 OVC050 09/08 Q1017